Time;durP1;ratioP1;P1;durP2;ratioP2;P2;SDS_P1;SDS_P2;PMS_P1;PMS_P2;Temp;Humidity;BMP_temperature;BMP_pressure;BME280_temperature;BME280_humidity;BME280_pressure;Samples;Min_cycle;Max_cycle;Signal;HPM_P1;HPM_P2
2022/06/05 00:01:58;;;;;;;10.82;9.45;;;;;;;18.72;58.85;101597.72;4949393;28;20046;-82
2022/06/05 00:04:32;;;;;;;13.80;9.18;;;;;;;18.70;59.01;101594.34;4956233;28;20034;-82
2022/06/05 00:07:31;;;;;;;14.38;9.10;;;;;;;18.68;58.87;101596.31;4967540;28;20061;-82
2022/06/05 00:10:15;;;;;;;13.38;8.85;;;;;;;18.60;59.21;101588.19;4968996;28;20469;-81
2022/06/05 00:12:57;;;;;;;10.43;7.97;;;;;;;18.58;58.91;101576.84;4955466;28;20730;-82
2022/06/05 00:15:23;;;;;;;12.32;7.53;;;;;;;18.55;59.52;101568.31;4952452;28;20035;-81
2022/06/05 00:17:48;;;;;;;9.15;7.28;;;;;;;18.51;59.84;101569.59;4956898;28;20344;-82
2022/06/05 00:20:14;;;;;;;10.75;7.35;;;;;;;18.48;59.88;101573.41;4971696;28;20030;-81
2022/06/05 00:22:39;;;;;;;11.98;7.82;;;;;;;18.45;60.01;101571.03;4971095;28;20365;-81
2022/06/05 00:25:07;;;;;;;10.63;7.55;;;;;;;18.40;60.15;101562.59;4969564;28;20022;-81
2022/06/05 00:28:00;;;;;;;8.23;7.20;;;;;;;18.39;59.74;101563.59;4971132;28;20090;-81
2022/06/05 00:30:33;;;;;;;;;;;;;;;18.40;59.52;101560.78;4987023;28;20058;-81
2022/06/05 00:33:06;;;;;;;8.23;7.38;;;;;;;18.30;60.03;101559.16;4970779;28;19944;-82
2022/06/05 00:35:44;;;;;;;9.68;7.15;;;;;;;18.24;60.59;101549.06;4969611;28;20500;-81
2022/06/05 00:38:24;;;;;;;9.55;7.50;;;;;;;18.20;60.47;101542.38;4969939;28;20054;-82
2022/06/05 00:41:17;;;;;;;12.13;6.97;;;;;;;18.17;60.37;101544.34;4969938;28;20077;-81
2022/06/05 00:43:44;;;;;;;8.20;6.88;;;;;;;18.12;60.76;101543.94;4970800;28;20023;-82
2022/06/05 00:46:09;;;;;;;8.27;6.88;;;;;;;18.12;60.86;101541.28;4971432;28;20045;-82
2022/06/05 00:48:35;;;;;;;8.65;6.78;;;;;;;18.14;60.99;101543.78;4970478;28;20031;-82
2022/06/05 00:51:00;;;;;;;9.45;6.78;;;;;;;18.11;60.63;101538.75;4987228;28;20400;-82
2022/06/05 00:53:25;;;;;;;8.23;6.80;;;;;;;18.12;60.81;101537.78;4971561;28;20115;-82
2022/06/05 00:55:52;;;;;;;7.65;6.70;;;;;;;18.09;60.88;101535.41;4963859;28;20030;-82
2022/06/05 00:58:19;;;;;;;8.02;6.68;;;;;;;18.06;60.84;101533.88;4951608;28;20043;-82
2022/06/05 01:00:49;;;;;;;7.75;6.82;;;;;;;18.07;60.86;101538.22;4951483;28;20023;-82
2022/06/05 01:03:15;;;;;;;7.25;6.38;;;;;;;18.03;60.96;101536.81;4967586;28;20425;-82
2022/06/05 01:05:41;;;;;;;9.93;7.20;;;;;;;18.05;61.10;101545.50;4969243;28;20034;-82
2022/06/05 01:08:09;;;;;;;9.05;6.95;;;;;;;18.07;60.94;101548.03;4927410;28;1246444;-82
2022/06/05 01:10:48;;;;;;;7.90;6.70;;;;;;;18.06;60.69;101536.53;4971381;28;20026;-82
2022/06/05 01:13:31;;;;;;;10.43;7.15;;;;;;;18.06;60.99;101547.19;4968050;28;20055;-82
2022/06/05 01:16:09;;;;;;;8.20;7.22;;;;;;;18.08;61.00;101547.88;4972070;28;20058;-82
2022/06/05 01:18:44;;;;;;;7.47;6.78;;;;;;;18.12;60.73;101567.06;4959580;28;20046;-82
2022/06/05 01:21:35;;;;;;;7.43;6.57;;;;;;;18.15;60.55;101626.22;4951440;28;20257;-81
2022/06/05 01:24:13;;;;;;;8.77;6.95;;;;;;;18.21;61.02;101597.31;4952422;28;20042;-82
2022/06/05 01:26:51;;;;;;;8.10;6.80;;;;;;;18.21;61.26;101568.03;4949169;28;20038;-82
2022/06/05 01:29:42;;;;;;;7.55;6.70;;;;;;;18.25;61.67;101620.88;4951878;28;20114;-81
2022/06/05 01:32:08;;;;;;;7.82;6.68;;;;;;;18.28;62.37;101609.06;4966836;28;20035;-81
2022/06/05 01:34:42;;;;;;;7.65;6.45;;;;;;;18.26;63.47;101552.44;4951846;28;20034;-81
2022/06/05 01:37:31;;;;;;;7.80;7.00;;;;;;;18.22;64.36;101529.75;4951127;28;20073;-81
2022/06/05 01:40:03;;;;;;;9.38;7.18;;;;;;;18.19;65.91;101578.81;4948464;28;20055;-81
2022/06/05 01:42:33;;;;;;;8.40;7.55;;;;;;;18.21;66.62;101586.66;4947678;28;20035;-81
2022/06/05 01:45:04;;;;;;;12.05;7.38;;;;;;;18.17;65.85;101560.31;4948555;28;20127;-81
2022/06/05 01:47:35;;;;;;;9.13;7.93;;;;;;;18.12;66.10;101557.25;4966337;28;20114;-82
2022/06/05 01:50:10;;;;;;;8.80;7.47;;;;;;;18.10;66.49;101548.56;4951409;28;20035;-81
2022/06/05 01:52:47;;;;;;;7.88;7.07;;;;;;;18.09;67.00;101552.22;4966110;28;20567;-82
2022/06/05 01:55:18;;;;;;;8.65;7.20;;;;;;;18.09;67.37;101546.91;4951681;28;20039;-82
2022/06/05 01:57:44;;;;;;;7.95;7.13;;;;;;;18.10;66.76;101537.91;4950689;28;20533;-81
2022/06/05 02:00:14;;;;;;;8.07;6.63;;;;;;;18.09;66.12;101522.09;4949032;28;20027;-81
2022/06/05 02:03:00;;;;;;;8.68;7.18;;;;;;;18.10;64.79;101521.09;4950048;28;20493;-81
2022/06/05 02:05:44;;;;;;;7.35;6.63;;;;;;;18.05;66.50;101513.56;4965198;28;20460;-81
2022/06/05 02:08:16;;;;;;;9.65;7.05;;;;;;;18.05;65.51;101510.88;4971900;28;20133;-81
2022/06/05 02:11:03;;;;;;;9.75;7.80;;;;;;;18.05;64.55;101496.72;4970944;28;20109;-81
2022/06/05 02:13:29;;;;;;;11.00;8.25;;;;;;;17.99;65.06;101489.28;4932509;29;20032;-81
2022/06/05 02:15:55;;;;;;;9.55;8.48;;;;;;;17.91;66.50;101478.53;4934062;29;20034;-81
2022/06/05 02:18:21;;;;;;;9.80;8.25;;;;;;;17.82;67.22;101469.63;4953331;28;20026;-81
2022/06/05 02:20:48;;;;;;;9.40;8.05;;;;;;;17.72;67.75;101458.16;4970549;28;20034;-80
2022/06/05 02:23:18;;;;;;;11.40;9.00;;;;;;;17.64;67.86;101450.03;4972481;28;20416;-81
2022/06/05 02:25:44;;;;;;;11.52;8.77;;;;;;;17.55;66.69;101441.91;4970863;28;20019;-80
2022/06/05 02:28:14;;;;;;;9.50;8.70;;;;;;;17.49;66.70;101437.16;4969663;28;20037;-81
2022/06/05 02:30:52;;;;;;;10.10;8.63;;;;;;;17.43;66.76;101427.09;4969413;28;20381;-81
2022/06/05 02:33:48;;;;;;;12.80;8.60;;;;;;;17.38;66.36;101418.72;4968354;28;20073;-81
2022/06/05 02:36:44;;;;;;;10.75;9.43;;;;;;;17.26;68.22;101414.56;4952820;28;20039;-81
2022/06/05 02:39:31;;;;;;;10.40;9.30;;;;;;;17.13;69.25;101409.50;4970734;28;20362;-81
2022/06/05 02:42:15;;;;;;;11.18;8.90;;;;;;;16.97;70.47;101405.75;4970849;28;20019;-81
2022/06/05 02:44:52;;;;;;;14.02;8.95;;;;;;;16.80;70.54;101392.19;4970425;28;20130;-81
2022/06/05 02:47:21;;;;;;;10.45;9.35;;;;;;;16.68;71.77;101385.34;4970279;28;20066;-81
2022/06/05 02:49:55;;;;;;;10.70;9.60;;;;;;;16.55;72.31;101371.47;4970455;28;20078;-81
2022/06/05 02:52:22;;;;;;;10.88;9.70;;;;;;;16.44;71.48;101364.47;4970175;28;20239;-82
2022/06/05 02:54:55;;;;;;;10.57;9.57;;;;;;;16.38;72.80;101366.81;4968918;28;20022;-81
2022/06/05 02:57:21;;;;;;;11.30;9.23;;;;;;;16.37;73.39;101362.50;4970514;28;20033;-82
2022/06/05 02:59:46;;;;;;;10.10;9.10;;;;;;;16.34;70.86;101373.38;4969493;28;20046;-81
2022/06/05 03:04:55;;;;;;;10.50;9.10;;;;;;;16.28;71.15;101369.47;4959763;28;20041;-81
2022/06/05 03:07:20;;;;;;;10.75;9.25;;;;;;;16.30;71.50;101367.50;4950590;28;20051;-81
2022/06/05 03:09:46;;;;;;;11.50;9.45;;;;;;;16.27;73.19;101358.00;4951969;28;20027;-81
2022/06/05 03:12:11;;;;;;;10.65;9.50;;;;;;;16.28;72.12;101365.00;4952143;28;20075;-81
2022/06/05 03:14:36;;;;;;;11.35;9.30;;;;;;;16.28;70.60;101359.69;4951103;28;20038;-81
2022/06/05 03:17:02;;;;;;;10.27;9.27;;;;;;;16.29;73.47;101360.53;4952171;28;20023;-81
2022/06/05 03:19:27;;;;;;;12.02;9.60;;;;;;;16.31;71.90;101366.53;4971197;28;20027;-81
2022/06/05 03:21:53;;;;;;;10.65;9.57;;;;;;;16.32;73.96;101376.19;4969339;28;20070;-81
2022/06/05 03:24:18;;;;;;;10.43;9.43;;;;;;;16.35;75.03;101380.38;4971650;28;20488;-81
2022/06/05 03:26:43;;;;;;;10.60;9.50;;;;;;;16.35;72.98;101381.22;4970952;28;20113;-80
2022/06/05 03:29:09;;;;;;;11.57;10.02;;;;;;;16.36;72.44;101382.06;4970523;28;20031;-81
2022/06/05 03:31:35;;;;;;;10.82;9.15;;;;;;;16.34;71.34;101387.50;4970947;28;20025;-81
2022/06/05 03:34:01;;;;;;;12.48;9.88;;;;;;;16.27;72.36;101384.56;4971292;28;20066;-80
2022/06/05 03:36:26;;;;;;;11.90;9.88;;;;;;;16.23;71.73;101388.47;4969427;28;20460;-81
2022/06/05 03:38:52;;;;;;;11.02;9.30;;;;;;;16.23;72.03;101393.78;4969417;28;20081;-80
2022/06/05 03:41:18;;;;;;;13.23;9.52;;;;;;;16.19;71.16;101387.06;4968819;28;20023;-80
2022/06/05 03:43:43;;;;;;;12.55;9.75;;;;;;;16.17;72.27;101383.72;4968918;28;20025;-80
2022/06/05 03:46:11;;;;;;;11.00;9.77;;;;;;;16.14;71.70;101381.34;4970169;28;20105;-80
2022/06/05 03:48:37;;;;;;;12.68;9.60;;;;;;;16.12;70.91;101380.63;4967532;28;20030;-81
2022/06/05 03:51:11;;;;;;;11.00;9.10;;;;;;;16.10;71.25;101382.59;4970347;28;20436;-80
2022/06/05 03:53:37;;;;;;;15.57;9.25;;;;;;;16.04;69.86;101385.78;4969204;28;20035;-80
2022/06/05 03:56:14;;;;;;;12.50;9.55;;;;;;;16.03;71.20;101386.75;4969633;28;20039;-81
2022/06/05 03:58:40;;;;;;;11.20;9.10;;;;;;;16.02;71.19;101387.75;4969106;28;20053;-81
2022/06/05 04:01:09;;;;;;;10.82;9.40;;;;;;;15.99;69.94;101390.63;4964168;28;20477;-80
2022/06/05 04:03:36;;;;;;;11.13;9.35;;;;;;;15.96;69.21;101386.44;4948918;28;20067;-80
2022/06/05 04:06:07;;;;;;;11.38;9.43;;;;;;;15.95;69.86;101390.06;4982742;28;20030;-81
2022/06/05 04:08:37;;;;;;;10.10;9.10;;;;;;;15.94;70.68;101387.53;4965792;28;20149;-81
2022/06/05 04:11:11;;;;;;;10.55;9.35;;;;;;;15.97;70.63;101381.97;4966693;28;20026;-81
2022/06/05 04:13:37;;;;;;;10.15;8.70;;;;;;;15.95;70.16;101382.09;4950203;28;20039;-81
2022/06/05 04:16:14;;;;;;;12.45;8.95;;;;;;;15.95;70.09;101375.97;4949851;28;20139;-82
2022/06/05 04:18:40;;;;;;;12.32;9.38;;;;;;;15.92;70.54;101363.78;4960873;28;20035;-81
2022/06/05 04:21:11;;;;;;;10.23;9.00;;;;;;;15.93;70.62;101357.50;4984936;28;20478;-81
2022/06/05 04:23:37;;;;;;;10.98;9.75;;;;;;;15.92;70.28;101365.63;4969097;28;20050;-81
2022/06/05 04:26:06;;;;;;;9.80;8.50;;;;;;;15.92;69.98;101369.09;4970172;28;20035;-81
2022/06/05 04:28:31;;;;;;;11.52;9.50;;;;;;;15.92;69.92;101369.09;4984515;28;20031;-81
2022/06/05 04:30:57;;;;;;;12.27;9.05;;;;;;;15.91;69.50;101364.78;4969491;28;20054;-81
2022/06/05 04:33:22;;;;;;;10.10;8.82;;;;;;;15.92;70.57;101362.97;4968687;28;20019;-82
2022/06/05 04:35:48;;;;;;;11.43;9.23;;;;;;;15.89;70.02;101358.75;4969263;28;20035;-81
2022/06/05 04:38:14;;;;;;;11.77;9.02;;;;;;;15.90;69.42;101364.91;4968021;28;20038;-81
2022/06/05 04:40:40;;;;;;;12.13;9.05;;;;;;;15.88;69.65;101364.22;4967340;28;20027;-82
2022/06/05 04:43:06;;;;;;;11.18;8.95;;;;;;;15.86;69.36;101358.19;4967634;28;20039;-81
2022/06/05 04:45:32;;;;;;;10.68;9.38;;;;;;;15.84;70.02;101352.19;4967956;28;20050;-82
2022/06/05 04:47:57;;;;;;;12.70;9.27;;;;;;;15.85;70.29;101357.34;4968909;28;20030;-82
2022/06/05 04:50:22;;;;;;;12.85;9.93;;;;;;;15.86;71.26;101353.72;4983734;28;20121;-82
2022/06/05 04:52:48;;;;;;;13.40;9.90;;;;;;;15.87;70.47;101357.22;4966357;28;20556;-82
2022/06/05 04:55:13;;;;;;;11.93;9.45;;;;;;;15.87;70.62;101354.56;4967436;28;20042;-82
2022/06/05 04:57:39;;;;;;;12.82;9.85;;;;;;;15.91;70.41;101366.59;4971930;28;20030;-81
2022/06/05 05:00:06;;;;;;;12.55;9.52;;;;;;;15.88;70.08;101372.16;4971669;28;20042;-82
2022/06/05 05:02:31;;;;;;;10.95;9.77;;;;;;;15.88;70.26;101364.22;4971717;28;20712;-81
2022/06/05 05:04:57;;;;;;;11.85;9.45;;;;;;;15.86;69.80;101359.03;4959543;28;20135;-81
2022/06/05 05:07:23;;;;;;;11.52;9.70;;;;;;;15.87;70.49;101360.72;4952360;28;20082;-81
2022/06/05 05:09:48;;;;;;;12.27;9.60;;;;;;;15.86;69.96;101363.50;4948122;28;20087;-81
2022/06/05 05:12:15;;;;;;;10.00;8.98;;;;;;;15.86;69.71;101377.59;4967505;28;20042;-81
2022/06/05 05:14:41;;;;;;;11.68;9.77;;;;;;;15.88;69.98;101369.50;4951664;28;20020;-81
2022/06/05 05:17:07;;;;;;;14.30;10.27;;;;;;;15.87;69.47;101367.84;4953166;28;20595;-81
2022/06/05 05:19:32;;;;;;;11.38;9.65;;;;;;;15.88;69.80;101361.56;4971543;28;20110;-81
2022/06/05 05:21:58;;;;;;;14.35;9.60;;;;;;;15.88;70.04;101367.69;4971697;28;20110;-81
2022/06/05 05:24:23;;;;;;;12.95;10.07;;;;;;;15.90;70.11;101367.56;4971664;28;20031;-81
2022/06/05 05:26:49;;;;;;;15.15;9.73;;;;;;;15.92;70.10;101374.41;4987234;28;20035;-80
2022/06/05 05:29:14;;;;;;;11.00;8.60;;;;;;;15.95;70.25;101374.16;4970896;28;20023;-81
2022/06/05 05:31:41;;;;;;;12.10;9.45;;;;;;;15.96;69.54;101369.66;4971078;28;20058;-81
2022/06/05 05:34:08;;;;;;;10.10;9.10;;;;;;;15.99;69.93;101369.41;4971761;28;20031;-81
2022/06/05 05:36:34;;;;;;;13.48;8.95;;;;;;;16.03;69.62;101368.19;4971250;28;20058;-83
2022/06/05 05:44:40;;;;;;;9.82;8.60;;;;;;;16.14;69.46;101369.88;4953453;28;20129;-83
2022/06/05 05:47:10;;;;;;;11.15;9.32;;;;;;;16.12;69.22;101369.16;4953388;28;20109;-83
2022/06/05 05:49:36;;;;;;;13.02;9.25;;;;;;;16.13;69.22;101361.06;4951852;28;20062;-83
2022/06/05 05:52:02;;;;;;;10.73;8.98;;;;;;;16.14;69.73;101368.06;4953245;28;20027;-83
2022/06/05 05:54:28;;;;;;;10.90;9.48;;;;;;;16.18;69.30;101361.50;4953144;28;20029;-83
2022/06/05 05:56:54;;;;;;;11.57;8.93;;;;;;;16.16;69.43;101349.34;4949497;28;20055;-83
2022/06/05 05:59:19;;;;;;;12.32;9.30;;;;;;;16.19;69.61;101344.59;4951992;28;20027;-82
2022/06/05 06:01:45;;;;;;;9.57;8.63;;;;;;;16.20;69.67;101340.97;4951522;28;20031;-82
2022/06/05 06:04:11;;;;;;;11.63;9.18;;;;;;;16.22;70.00;101341.66;4954819;28;20026;-83
2022/06/05 06:06:41;;;;;;;10.77;8.90;;;;;;;16.25;70.09;101333.41;4968574;28;20552;-80
2022/06/05 06:09:06;;;;;;;12.52;9.05;;;;;;;16.30;69.82;101333.84;4970227;28;20026;-81
2022/06/05 06:11:32;;;;;;;10.18;9.18;;;;;;;16.36;69.59;101328.94;4963159;28;20082;-81
2022/06/05 06:13:57;;;;;;;11.70;9.40;;;;;;;16.38;69.22;101324.31;4951697;28;20026;-81
2022/06/05 06:16:23;;;;;;;10.48;8.82;;;;;;;16.42;69.46;101302.69;4949815;28;20500;-81
2022/06/05 06:18:48;;;;;;;11.90;9.32;;;;;;;16.45;68.83;101299.75;4979755;28;20574;-81
2022/06/05 06:21:13;;;;;;;11.05;9.35;;;;;;;16.47;68.75;101303.09;4969398;28;20045;-82
2022/06/05 06:23:39;;;;;;;10.85;9.30;;;;;;;16.51;68.97;101303.66;4984574;28;20026;-83
2022/06/05 06:26:06;;;;;;;11.35;9.05;;;;;;;16.56;69.02;101304.91;4985635;28;20029;-82
2022/06/05 06:28:31;;;;;;;12.45;9.10;;;;;;;16.61;69.08;101300.00;4969085;28;20052;-81
2022/06/05 06:30:57;;;;;;;11.55;9.57;;;;;;;16.65;68.71;101287.28;4969867;28;20092;-81
2022/06/05 06:33:22;;;;;;;11.73;9.23;;;;;;;16.70;69.14;101282.41;4970526;28;20030;-81
2022/06/05 06:35:48;;;;;;;11.35;9.55;;;;;;;16.76;68.89;101289.78;4970097;28;20176;-81
2022/06/05 06:38:13;;;;;;;10.48;9.45;;;;;;;16.83;68.88;101280.28;4970048;28;20033;-81
2022/06/05 06:40:38;;;;;;;11.25;10.15;;;;;;;16.86;67.97;101280.00;4970045;28;20031;-81
2022/06/05 06:43:04;;;;;;;11.85;9.77;;;;;;;16.93;68.67;101272.28;4971703;28;20553;-82
2022/06/05 06:45:30;;;;;;;10.45;9.40;;;;;;;16.97;68.45;101268.34;4969141;28;20092;-82
2022/06/05 06:47:55;;;;;;;11.13;9.27;;;;;;;17.04;68.23;101263.28;4971225;28;20042;-81
2022/06/05 06:50:20;;;;;;;11.75;9.75;;;;;;;17.10;68.43;101260.88;4970094;28;20023;-81
2022/06/05 06:52:46;;;;;;;10.52;9.38;;;;;;;17.15;67.91;101253.31;4970158;28;20066;-82
2022/06/05 06:55:15;;;;;;;11.55;10.32;;;;;;;17.21;67.63;101260.72;4971286;28;20053;-81
2022/06/05 06:57:41;;;;;;;13.18;9.75;;;;;;;17.29;67.61;101281.28;4970796;28;20121;-81
2022/06/05 07:00:07;;;;;;;11.43;9.52;;;;;;;17.39;67.82;101278.56;4970266;28;20471;-82
2022/06/05 07:02:33;;;;;;;11.00;9.88;;;;;;;17.45;67.30;101270.81;4985539;28;20038;-82
2022/06/05 07:04:58;;;;;;;11.13;9.95;;;;;;;17.54;67.17;101267.28;4985431;28;20019;-82
2022/06/05 07:07:23;;;;;;;12.82;9.63;;;;;;;17.61;66.66;101258.69;4969463;28;20403;-82
2022/06/05 07:09:49;;;;;;;12.98;9.68;;;;;;;17.70;66.48;101258.69;4968297;28;20054;-82
2022/06/05 07:12:17;;;;;;;10.82;9.82;;;;;;;17.80;67.02;101259.47;4972773;28;20027;-82
2022/06/05 07:14:43;;;;;;;10.75;9.73;;;;;;;17.88;66.56;101248.06;4947658;28;20027;-82
2022/06/05 07:17:08;;;;;;;11.43;9.80;;;;;;;18.00;66.52;101249.50;4965644;28;20034;-82
2022/06/05 07:19:33;;;;;;;10.93;9.55;;;;;;;18.15;65.72;101247.16;4983244;28;20469;-82
2022/06/05 07:21:58;;;;;;;12.23;9.65;;;;;;;18.25;65.69;101244.41;4969681;28;20401;-82
2022/06/05 07:24:24;;;;;;;9.60;8.65;;;;;;;18.39;65.78;101247.34;4970243;28;20473;-82
2022/06/05 07:26:49;;;;;;;10.93;9.70;;;;;;;18.51;65.30;101236.47;4968627;28;20034;-82
2022/06/05 07:29:14;;;;;;;11.20;9.05;;;;;;;18.62;64.85;101228.25;4969661;28;20640;-81
2022/06/05 07:31:40;;;;;;;12.60;9.30;;;;;;;18.68;64.44;101239.09;4968676;28;20105;-82
2022/06/05 07:34:08;;;;;;;10.27;9.32;;;;;;;18.84;64.81;101227.72;4967621;28;20122;-81
2022/06/05 07:36:34;;;;;;;10.45;9.10;;;;;;;18.97;63.71;101221.97;4969159;28;20035;-82
2022/06/05 07:39:02;;;;;;;10.27;9.05;;;;;;;19.12;63.96;101219.53;4969518;28;20503;-81
2022/06/05 07:41:31;;;;;;;11.75;9.60;;;;;;;19.22;63.83;101221.09;4983777;28;20026;-82
2022/06/05 07:43:58;;;;;;;10.07;9.07;;;;;;;19.31;63.46;101213.94;4984408;28;20084;-82
2022/06/05 07:46:24;;;;;;;9.85;8.85;;;;;;;19.37;63.16;101214.13;4970284;28;20110;-82
2022/06/05 07:48:50;;;;;;;10.95;9.80;;;;;;;19.40;63.15;101213.81;4969544;28;20393;-82
2022/06/05 07:56:47;;;;;;;10.63;8.98;;;;;;;19.56;62.81;101202.38;4969672;28;20078;-82
2022/06/05 07:59:12;;;;;;;11.13;9.43;;;;;;;19.69;62.47;101201.91;4969052;28;20117;-81
2022/06/05 08:01:38;;;;;;;10.90;9.40;;;;;;;19.85;61.86;101191.25;4969166;28;20039;-81
2022/06/05 08:04:04;;;;;;;10.55;9.15;;;;;;;20.08;61.85;101193.28;4964792;28;20016;-81
2022/06/05 08:06:32;;;;;;;10.40;8.50;;;;;;;20.31;62.09;101194.25;4950601;28;20023;-81
2022/06/05 08:08:59;;;;;;;11.43;8.45;;;;;;;20.55;61.49;101188.09;4963072;28;20137;-81
2022/06/05 08:11:24;;;;;;;9.57;8.63;;;;;;;20.62;60.59;101189.91;4963253;28;20086;-81
2022/06/05 08:13:50;;;;;;;10.52;9.43;;;;;;;20.76;60.27;101179.50;4949433;28;20031;-81
2022/06/05 08:16:15;;;;;;;9.95;9.05;;;;;;;20.92;60.63;101180.31;4945410;28;20032;-82
2022/06/05 08:18:40;;;;;;;10.48;9.38;;;;;;;21.13;59.78;101179.69;4961929;28;20039;-81
2022/06/05 08:21:06;;;;;;;12.85;9.82;;;;;;;21.43;58.00;101178.09;4967690;28;20098;-81
2022/06/05 08:23:31;;;;;;;10.52;9.40;;;;;;;21.77;57.84;101169.66;4982686;28;20030;-81
2022/06/05 08:25:56;;;;;;;10.50;9.40;;;;;;;21.97;56.97;101164.66;4967569;28;20539;-81
2022/06/05 08:28:25;;;;;;;10.80;9.60;;;;;;;22.11;56.39;101165.75;4967738;28;20109;-82
2022/06/05 08:30:54;;;;;;;10.52;9.40;;;;;;;22.13;55.92;101169.09;4949497;28;20035;-82
2022/06/05 08:33:20;;;;;;;11.13;9.77;;;;;;;22.05;55.79;101164.63;4953277;28;20568;-82
2022/06/05 08:35:46;;;;;;;11.43;9.55;;;;;;;21.95;56.92;101163.16;4953186;28;20034;-82
2022/06/05 08:41:26;;;;;;;11.13;10.07;;;;;;;21.87;57.84;101170.25;4953492;28;20071;-82
2022/06/05 08:43:59;;;;;;;10.45;9.38;;;;;;;21.98;57.89;101165.47;4967038;28;20058;-81
2022/06/05 08:46:52;;;;;;;10.73;9.70;;;;;;;22.11;57.90;101171.13;4953377;28;20023;-82
2022/06/05 08:49:53;;;;;;;9.85;8.85;;;;;;;22.24;57.12;101159.75;4953306;28;20043;-82
2022/06/05 08:52:27;;;;;;;14.05;9.65;;;;;;;22.24;56.78;101165.97;4952636;28;20030;-82
2022/06/05 08:55:09;;;;;;;11.25;9.95;;;;;;;22.28;56.99;101177.97;4950047;28;20091;-83
2022/06/05 08:57:41;;;;;;;10.73;9.63;;;;;;;22.25;56.91;101180.19;4953612;28;20038;-82
2022/06/05 09:00:12;;;;;;;;;;;;;;;22.30;57.30;101175.94;4951606;28;20027;-83
2022/06/05 09:02:50;;;;;;;11.32;9.60;;;;;;;22.15;57.58;101177.78;4952053;28;19923;-82
2022/06/05 09:05:35;;;;;;;11.77;10.68;;;;;;;22.06;57.55;101170.81;4981698;28;20403;-82
2022/06/05 09:08:04;;;;;;;10.88;9.88;;;;;;;21.89;57.90;101173.59;4973039;28;20051;-82
2022/06/05 09:10:29;;;;;;;11.27;10.27;;;;;;;21.80;58.17;101180.03;4971437;28;20034;-82
2022/06/05 09:13:00;;;;;;;11.13;10.02;;;;;;;21.69;59.29;101172.41;4970094;28;20031;-83
2022/06/05 09:15:33;;;;;;;11.52;10.48;;;;;;;21.59;58.72;101166.44;4953902;28;20137;-82
2022/06/05 09:18:01;;;;;;;11.55;10.13;;;;;;;21.53;58.76;101177.84;4960732;28;20092;-82
2022/06/05 09:20:37;;;;;;;11.90;10.70;;;;;;;21.47;59.10;101184.75;4972346;28;20030;-82
2022/06/05 09:23:13;;;;;;;11.98;10.63;;;;;;;21.43;59.50;101180.75;4972904;28;20384;-82
2022/06/05 09:26:00;;;;;;;11.75;10.50;;;;;;;21.47;59.76;101170.53;4970997;28;20374;-82
2022/06/05 09:28:50;;;;;;;12.07;10.88;;;;;;;21.35;60.17;101164.75;4987279;28;20038;-82
2022/06/05 09:31:37;;;;;;;11.82;10.73;;;;;;;21.32;60.14;101169.63;4986746;28;20026;-82
2022/06/05 09:34:13;;;;;;;11.75;10.55;;;;;;;21.31;61.09;101167.97;4970912;28;20023;-82
2022/06/05 09:36:41;;;;;;;11.10;9.95;;;;;;;21.27;61.50;101162.97;4970869;28;20026;-82
2022/06/05 09:39:32;;;;;;;12.98;10.77;;;;;;;21.30;61.24;101171.66;4971502;28;20118;-82
2022/06/05 09:42:21;;;;;;;11.25;10.07;;;;;;;21.20;61.07;101164.59;4964453;28;20031;-82
2022/06/05 09:45:17;;;;;;;12.45;10.23;;;;;;;21.12;61.40;101159.31;4985681;28;20038;-81
2022/06/05 09:48:04;;;;;;;12.05;10.30;;;;;;;21.06;61.71;101159.16;4984684;28;20504;-82
2022/06/05 09:50:30;;;;;;;11.10;10.10;;;;;;;21.02;62.98;101145.31;4970925;28;20029;-82
2022/06/05 09:52:56;;;;;;;11.05;10.05;;;;;;;21.02;62.97;101139.97;4969930;28;20401;-82
2022/06/05 09:56:08;;;;;;;12.00;10.77;;;;;;;21.04;62.08;101134.44;4985503;28;20027;-82
2022/06/05 09:59:11;;;;;;;12.18;10.90;;;;;;;20.97;62.42;101128.94;4965445;28;20126;-81
2022/06/05 10:01:49;;;;;;;11.52;10.32;;;;;;;20.94;62.97;101129.28;4950850;28;20121;-81
2022/06/05 10:04:15;;;;;;;11.38;10.15;;;;;;;20.87;63.99;101117.63;4957340;28;20053;-81
2022/06/05 10:06:54;;;;;;;12.63;11.43;;;;;;;20.86;64.02;101115.97;4969787;28;20062;-81
2022/06/05 10:09:23;;;;;;;11.77;10.68;;;;;;;20.84;65.31;101126.00;4971364;28;20080;-81
2022/06/05 10:11:57;;;;;;;11.93;10.93;;;;;;;20.83;67.25;101110.97;4963230;28;20035;-81
2022/06/05 10:14:42;;;;;;;13.35;12.15;;;;;;;20.85;66.34;101122.31;4951557;28;20031;-82
2022/06/05 10:17:08;;;;;;;14.10;11.88;;;;;;;20.82;66.81;101117.31;4949011;28;20054;-81
2022/06/05 10:20:05;;;;;;;12.60;11.50;;;;;;;20.83;67.01;101121.66;4971463;28;20081;-81
2022/06/05 10:22:36;;;;;;;13.50;12.30;;;;;;;20.80;68.64;101119.31;4969338;28;20493;-82
2022/06/05 10:25:10;;;;;;;12.85;11.65;;;;;;;20.80;68.21;101124.66;4971934;28;20101;-82
2022/06/05 10:27:36;;;;;;;13.25;12.02;;;;;;;20.74;68.73;101122.69;4972023;28;20358;-81
2022/06/05 10:30:05;;;;;;;13.27;12.07;;;;;;;20.68;69.92;101123.38;4951594;28;20019;-81
2022/06/05 10:33:00;;;;;;;13.55;12.23;;;;;;;20.67;68.16;101121.72;4951617;28;20031;-81
2022/06/05 10:35:38;;;;;;;13.23;12.02;;;;;;;20.60;70.24;101119.72;4952337;28;20023;-81
2022/06/05 10:38:26;;;;;;;12.93;11.63;;;;;;;20.59;70.13;101115.38;4950053;28;20027;-81
2022/06/05 10:40:56;;;;;;;13.93;12.40;;;;;;;20.56;70.03;101114.91;4950851;28;20057;-81
2022/06/05 10:43:25;;;;;;;14.13;12.55;;;;;;;20.47;72.35;101114.09;4947602;28;20474;-81
2022/06/05 10:46:06;;;;;;;13.80;12.50;;;;;;;20.37;70.76;101105.38;4965287;28;20086;-80
2022/06/05 10:48:58;;;;;;;15.23;13.57;;;;;;;20.37;70.97;101108.03;4950549;28;20031;-81
2022/06/05 10:51:36;;;;;;;14.68;13.20;;;;;;;20.26;72.45;101116.44;4965302;28;20114;-81
2022/06/05 10:54:43;;;;;;;15.60;13.77;;;;;;;20.18;72.22;101105.75;4949205;28;20038;-82
2022/06/05 10:57:18;;;;;;;17.85;16.15;;;;;;;20.09;74.21;101107.63;4950934;28;20033;-82
2022/06/05 10:59:59;;;;;;;17.25;15.70;;;;;;;20.03;74.39;101109.13;4964224;28;20061;-82
2022/06/05 11:02:33;;;;;;;17.17;15.27;;;;;;;19.94;75.88;101112.78;4951023;28;20035;-82
2022/06/05 11:05:20;;;;;;;15.73;14.32;;;;;;;19.84;75.91;101101.44;4960445;28;20543;-82
2022/06/05 11:07:55;;;;;;;16.65;15.00;;;;;;;19.83;77.15;101114.97;4968265;28;20386;-81
2022/06/05 11:13:43;;;;;;;21.77;19.00;;;;;;;19.60;84.05;101106.75;4949610;28;20093;-83
2022/06/05 11:16:40;;;;;;;19.40;17.50;;;;;;;19.52;81.74;101104.06;4963809;28;20050;-83
2022/06/05 11:19:20;;;;;;;19.60;17.60;;;;;;;19.29;85.65;101103.88;4952124;28;20113;-84
2022/06/05 11:21:48;;;;;;;19.88;17.77;;;;;;;19.20;86.45;101097.66;4966644;28;20568;-83
2022/06/05 11:24:39;;;;;;;18.75;17.10;;;;;;;19.06;86.98;101092.97;4975653;28;20102;-84
2022/06/05 11:27:11;;;;;;;20.45;18.55;;;;;;;18.94;88.67;101094.28;4948706;28;20133;-85
2022/06/05 11:29:42;;;;;;;;;;;;;;;19.10;81.33;101088.97;4951234;28;20159;-84
2022/06/05 11:32:10;;;;;;;21.20;19.17;;;;;;;18.93;90.53;101087.28;4951412;28;19918;-84
2022/06/05 11:34:52;;;;;;;20.42;18.25;;;;;;;18.94;88.73;101083.59;4948812;28;20036;-84
2022/06/05 11:37:23;;;;;;;22.50;20.52;;;;;;;18.84;91.20;101082.91;4949318;28;20039;-84
2022/06/05 11:40:27;;;;;;;22.48;20.38;;;;;;;18.88;90.41;101087.75;4957324;28;20465;-84
2022/06/05 11:43:18;;;;;;;22.63;20.38;;;;;;;18.88;91.39;101078.94;4952469;28;20030;-84
2022/06/05 11:45:46;;;;;;;23.77;21.38;;;;;;;18.87;93.03;101078.09;4983728;28;20030;-84
2022/06/05 11:48:35;;;;;;;25.45;22.75;;;;;;;18.82;92.93;101076.91;4983707;28;20027;-83
2022/06/05 11:51:22;;;;;;;25.58;22.92;;;;;;;18.68;93.95;101073.84;4968445;28;20046;-83
2022/06/05 11:54:12;;;;;;;25.10;22.60;;;;;;;18.66;93.15;101075.00;4968166;28;20073;-83
2022/06/05 11:56:58;;;;;;;24.65;22.05;;;;;;;18.59;93.58;101074.78;4983574;28;20034;-84
2022/06/05 11:59:41;;;;;;;27.40;24.65;;;;;;;18.52;95.73;101073.75;4969207;28;20032;-84